LRSV/SCV METAR and TAF weather

Enter ICAO airport designator
Station Type Date Time Source
LRSV METAR 2021/09/16 20:30 UTC NOAA

LRSV 162030Z 19005KT CAVOK 19/13 Q1015


Station Type Date Time Source
LRSV Decoded METAR 2021/09/16 20:30 UTC NOAA

Suceava / Salcea, Romania (LRSV) 47-39N 026-15E 351M
Sep 16, 2021 - 04:30 PM EDT / 2021.09.16 2030 UTC
Wind: from the S (190 degrees) at 6 MPH (5 KT):0
Visibility: greater than 7 mile(s):0
Temperature: 66 F (19 C)
Dew Point: 55 F (13 C)
Relative Humidity: 68%
Pressure (altimeter): 29.97 in. Hg (1015 hPa)
ob: LRSV 162030Z 19005KT CAVOK 19/13 Q1015
cycle: 20

Station Type Date Time Source
LRSV TAF 2014/07/19 18:48 UTC NOAA

TAF LRSV 191800Z 1918/2024 CNL

Example: see airport list